sensor_id;sensor_type;location;lat;lon;timestamp;noise_LAeq;noise_LA_min;noise_LA_max;noise_LA01;noise_LA95
49568;Laerm;35474;51.032;6.998;2023-09-18T00:00:35;46.31;43.29;61.08;;
49568;Laerm;35474;51.032;6.998;2023-09-18T00:03:01;51.54;42.88;69.70;;
49568;Laerm;35474;51.032;6.998;2023-09-18T00:05:30;46.48;43.44;51.95;;
49568;Laerm;35474;51.032;6.998;2023-09-18T00:07:57;52.79;43.14;66.57;;
49568;Laerm;35474;51.032;6.998;2023-09-18T00:10:25;46.27;43.58;56.35;;
49568;Laerm;35474;51.032;6.998;2023-09-18T00:12:52;49.97;43.14;63.76;;
49568;Laerm;35474;51.032;6.998;2023-09-18T00:15:19;53.89;43.14;64.65;;
49568;Laerm;35474;51.032;6.998;2023-09-18T00:17:45;45.66;42.53;56.56;;
49568;Laerm;35474;51.032;6.998;2023-09-18T00:20:12;51.29;43.04;64.69;;
49568;Laerm;35474;51.032;6.998;2023-09-18T00:22:40;46.61;43.29;52.38;;
49568;Laerm;35474;51.032;6.998;2023-09-18T00:25:07;48.14;43.04;57.77;;
49568;Laerm;35474;51.032;6.998;2023-09-18T00:27:33;46.91;43.49;52.60;;
49568;Laerm;35474;51.032;6.998;2023-09-18T00:30:07;45.86;43.29;53.40;;
49568;Laerm;35474;51.032;6.998;2023-09-18T00:32:33;50.25;43.86;64.46;;
49568;Laerm;35474;51.032;6.998;2023-09-18T00:35:00;48.59;42.71;63.58;;
49568;Laerm;35474;51.032;6.998;2023-09-18T00:37:28;44.63;42.65;48.84;;
49568;Laerm;35474;51.032;6.998;2023-09-18T00:39:55;45.49;43.24;50.38;;
49568;Laerm;35474;51.032;6.998;2023-09-18T00:42:21;44.85;42.47;48.20;;
49568;Laerm;35474;51.032;6.998;2023-09-18T00:44:49;44.74;42.41;51.68;;
49568;Laerm;35474;51.032;6.998;2023-09-18T00:47:17;44.88;42.76;49.39;;
49568;Laerm;35474;51.032;6.998;2023-09-18T00:49:47;45.03;42.82;49.71;;
49568;Laerm;35474;51.032;6.998;2023-09-18T00:52:16;45.84;43.04;55.21;;
49568;Laerm;35474;51.032;6.998;2023-09-18T00:54:44;48.95;42.93;61.58;;
49568;Laerm;35474;51.032;6.998;2023-09-18T00:57:11;50.56;43.77;62.70;;
49568;Laerm;35474;51.032;6.998;2023-09-18T00:59:39;50.65;43.54;64.82;;
49568;Laerm;35474;51.032;6.998;2023-09-18T01:02:06;51.82;43.72;65.56;;
49568;Laerm;35474;51.032;6.998;2023-09-18T01:04:33;47.25;43.81;54.53;;
49568;Laerm;35474;51.032;6.998;2023-09-18T01:07:00;54.14;43.29;67.34;;
49568;Laerm;35474;51.032;6.998;2023-09-18T01:09:31;51.56;43.29;67.69;;
49568;Laerm;35474;51.032;6.998;2023-09-18T01:15:02;50.93;43.90;65.46;;
49568;Laerm;35474;51.032;6.998;2023-09-18T01:17:35;52.31;43.94;67.38;;
49568;Laerm;35474;51.032;6.998;2023-09-18T01:20:05;46.11;43.72;52.90;;
49568;Laerm;35474;51.032;6.998;2023-09-18T01:22:32;48.13;44.65;58.73;;
49568;Laerm;35474;51.032;6.998;2023-09-18T01:24:58;46.56;44.03;54.84;;
49568;Laerm;35474;51.032;6.998;2023-09-18T01:27:25;46.69;44.15;57.13;;
49568;Laerm;35474;51.032;6.998;2023-09-18T01:29:52;46.85;44.15;50.67;;
49568;Laerm;35474;51.032;6.998;2023-09-18T01:32:22;47.78;43.72;56.98;;
49568;Laerm;35474;51.032;6.998;2023-09-18T01:34:54;50.90;44.23;64.01;;
49568;Laerm;35474;51.032;6.998;2023-09-18T01:37:23;58.53;44.97;73.18;;
49568;Laerm;35474;51.032;6.998;2023-09-18T01:39:51;48.18;44.15;53.40;;
49568;Laerm;35474;51.032;6.998;2023-09-18T01:42:19;47.78;44.04;55.75;;
49568;Laerm;35474;51.032;6.998;2023-09-18T01:44:47;55.73;45.33;66.79;;
49568;Laerm;35474;51.032;6.998;2023-09-18T01:47:18;48.51;44.83;58.66;;
49568;Laerm;35474;51.032;6.998;2023-09-18T01:49:45;48.69;44.15;56.75;;
49568;Laerm;35474;51.032;6.998;2023-09-18T01:52:13;49.77;44.43;65.15;;
49568;Laerm;35474;51.032;6.998;2023-09-18T01:54:39;49.49;45.11;68.62;;
49568;Laerm;35474;51.032;6.998;2023-09-18T01:57:06;52.48;45.30;69.28;;
49568;Laerm;35474;51.032;6.998;2023-09-18T01:59:34;50.04;43.63;71.76;;
49568;Laerm;35474;51.032;6.998;2023-09-18T02:02:02;50.84;45.48;74.73;;
49568;Laerm;35474;51.032;6.998;2023-09-18T02:04:33;53.30;44.69;70.33;;
49568;Laerm;35474;51.032;6.998;2023-09-18T02:07:19;60.29;45.27;76.74;;
49568;Laerm;35474;51.032;6.998;2023-09-18T02:09:46;55.60;44.90;70.85;;
49568;Laerm;35474;51.032;6.998;2023-09-18T02:12:13;53.24;45.01;74.35;;
49568;Laerm;35474;51.032;6.998;2023-09-18T02:14:44;56.72;45.75;80.29;;
49568;Laerm;35474;51.032;6.998;2023-09-18T02:17:11;55.25;44.69;78.83;;
49568;Laerm;35474;51.032;6.998;2023-09-18T02:19:38;56.28;45.30;75.91;;
49568;Laerm;35474;51.032;6.998;2023-09-18T02:22:05;55.53;45.77;76.11;;
49568;Laerm;35474;51.032;6.998;2023-09-18T02:24:31;51.94;44.54;75.40;;
49568;Laerm;35474;51.032;6.998;2023-09-18T02:26:58;61.58;44.94;86.34;;
49568;Laerm;35474;51.032;6.998;2023-09-18T02:29:24;70.36;44.97;95.29;;
49568;Laerm;35474;51.032;6.998;2023-09-18T02:31:51;60.81;45.70;86.07;;
49568;Laerm;35474;51.032;6.998;2023-09-18T02:34:18;60.46;46.28;85.85;;
49568;Laerm;35474;51.032;6.998;2023-09-18T02:36:45;53.99;45.42;69.52;;
49568;Laerm;35474;51.032;6.998;2023-09-18T02:39:12;56.26;46.10;75.78;;
49568;Laerm;35474;51.032;6.998;2023-09-18T02:41:39;56.53;45.07;73.10;;
49568;Laerm;35474;51.032;6.998;2023-09-18T02:44:06;54.00;44.62;70.64;;
49568;Laerm;35474;51.032;6.998;2023-09-18T02:46:32;54.95;47.14;72.27;;
49568;Laerm;35474;51.032;6.998;2023-09-18T02:48:59;57.91;47.06;84.93;;
49568;Laerm;35474;51.032;6.998;2023-09-18T02:51:26;63.65;45.94;86.72;;
49568;Laerm;35474;51.032;6.998;2023-09-18T02:53:53;59.19;45.42;79.97;;
49568;Laerm;35474;51.032;6.998;2023-09-18T02:56:20;58.07;45.72;72.54;;
49568;Laerm;35474;51.032;6.998;2023-09-18T02:58:46;57.62;46.64;77.34;;
49568;Laerm;35474;51.032;6.998;2023-09-18T03:01:13;62.60;46.18;85.65;;
49568;Laerm;35474;51.032;6.998;2023-09-18T03:03:39;58.83;47.52;83.28;;
49568;Laerm;35474;51.032;6.998;2023-09-18T03:06:08;61.54;45.91;74.53;;
49568;Laerm;35474;51.032;6.998;2023-09-18T03:08:35;59.21;46.50;83.10;;
49568;Laerm;35474;51.032;6.998;2023-09-18T03:11:01;60.19;47.77;72.75;;
49568;Laerm;35474;51.032;6.998;2023-09-18T03:13:30;61.32;45.94;75.88;;
49568;Laerm;35474;51.032;6.998;2023-09-18T03:15:57;55.64;45.66;69.55;;
49568;Laerm;35474;51.032;6.998;2023-09-18T03:18:24;58.30;46.33;68.67;;
49568;Laerm;35474;51.032;6.998;2023-09-18T03:20:50;56.72;47.16;69.20;;
49568;Laerm;35474;51.032;6.998;2023-09-18T03:23:17;58.28;48.13;69.12;;
49568;Laerm;35474;51.032;6.998;2023-09-18T03:25:44;61.17;47.40;71.34;;
49568;Laerm;35474;51.032;6.998;2023-09-18T03:28:17;58.48;46.80;68.97;;
49568;Laerm;35474;51.032;6.998;2023-09-18T03:30:44;58.12;46.62;69.41;;
49568;Laerm;35474;51.032;6.998;2023-09-18T03:33:11;62.72;48.81;75.04;;
49568;Laerm;35474;51.032;6.998;2023-09-18T03:35:46;62.28;46.84;87.33;;
49568;Laerm;35474;51.032;6.998;2023-09-18T03:38:13;63.57;51.47;78.34;;
49568;Laerm;35474;51.032;6.998;2023-09-18T03:40:40;61.88;48.96;81.24;;
49568;Laerm;35474;51.032;6.998;2023-09-18T03:43:08;60.45;47.26;78.18;;
49568;Laerm;35474;51.032;6.998;2023-09-18T03:45:35;64.12;49.52;76.40;;
49568;Laerm;35474;51.032;6.998;2023-09-18T03:48:03;62.27;48.87;75.57;;
49568;Laerm;35474;51.032;6.998;2023-09-18T03:50:30;65.56;48.49;84.43;;
49568;Laerm;35474;51.032;6.998;2023-09-18T03:52:56;67.11;47.86;89.88;;
49568;Laerm;35474;51.032;6.998;2023-09-18T03:55:23;63.72;49.19;81.71;;
49568;Laerm;35474;51.032;6.998;2023-09-18T03:57:49;64.95;48.10;88.80;;
49568;Laerm;35474;51.032;6.998;2023-09-18T04:00:16;61.53;46.89;80.86;;
49568;Laerm;35474;51.032;6.998;2023-09-18T04:02:43;62.17;47.76;79.43;;
49568;Laerm;35474;51.032;6.998;2023-09-18T04:05:09;67.97;50.01;93.49;;
49568;Laerm;35474;51.032;6.998;2023-09-18T04:07:36;62.52;49.75;76.56;;
49568;Laerm;35474;51.032;6.998;2023-09-18T04:10:03;60.84;48.00;75.40;;
49568;Laerm;35474;51.032;6.998;2023-09-18T04:12:30;63.36;48.46;81.01;;
49568;Laerm;35474;51.032;6.998;2023-09-18T04:14:57;62.07;49.45;69.84;;
49568;Laerm;35474;51.032;6.998;2023-09-18T04:17:23;63.26;47.38;79.30;;
49568;Laerm;35474;51.032;6.998;2023-09-18T04:19:50;63.67;48.91;77.40;;
49568;Laerm;35474;51.032;6.998;2023-09-18T04:22:16;62.00;49.32;69.28;;
49568;Laerm;35474;51.032;6.998;2023-09-18T04:24:43;63.23;49.04;74.01;;
49568;Laerm;35474;51.032;6.998;2023-09-18T04:27:10;63.13;48.39;73.48;;
49568;Laerm;35474;51.032;6.998;2023-09-18T04:29:36;61.19;47.40;70.38;;
49568;Laerm;35474;51.032;6.998;2023-09-18T04:32:04;63.91;49.20;73.23;;
49568;Laerm;35474;51.032;6.998;2023-09-18T04:34:30;63.60;51.03;79.11;;
49568;Laerm;35474;51.032;6.998;2023-09-18T04:36:57;61.34;49.80;78.45;;
49568;Laerm;35474;51.032;6.998;2023-09-18T04:39:24;62.94;47.65;77.03;;
49568;Laerm;35474;51.032;6.998;2023-09-18T04:41:51;63.59;48.12;78.79;;
49568;Laerm;35474;51.032;6.998;2023-09-18T04:44:17;63.04;48.49;72.23;;
49568;Laerm;35474;51.032;6.998;2023-09-18T04:46:44;64.23;48.77;77.42;;
49568;Laerm;35474;51.032;6.998;2023-09-18T04:49:10;63.95;51.75;78.97;;
49568;Laerm;35474;51.032;6.998;2023-09-18T04:51:40;68.09;49.25;90.68;;
49568;Laerm;35474;51.032;6.998;2023-09-18T04:54:08;65.08;51.44;82.70;;
49568;Laerm;35474;51.032;6.998;2023-09-18T04:56:34;64.50;46.52;73.91;;
49568;Laerm;35474;51.032;6.998;2023-09-18T04:59:01;63.62;46.93;78.24;;
49568;Laerm;35474;51.032;6.998;2023-09-18T05:01:28;60.78;48.08;72.47;;
49568;Laerm;35474;51.032;6.998;2023-09-18T05:03:56;62.39;50.44;74.88;;
49568;Laerm;35474;51.032;6.998;2023-09-18T05:06:23;65.34;51.34;75.51;;
49568;Laerm;35474;51.032;6.998;2023-09-18T05:08:50;62.45;49.54;69.45;;
49568;Laerm;35474;51.032;6.998;2023-09-18T05:11:18;63.56;53.44;69.54;;
49568;Laerm;35474;51.032;6.998;2023-09-18T05:13:45;63.33;49.02;75.04;;
49568;Laerm;35474;51.032;6.998;2023-09-18T05:16:12;64.75;49.73;73.12;;
49568;Laerm;35474;51.032;6.998;2023-09-18T05:18:39;63.67;46.66;76.00;;
49568;Laerm;35474;51.032;6.998;2023-09-18T05:21:09;65.21;48.72;77.57;;
49568;Laerm;35474;51.032;6.998;2023-09-18T05:23:36;65.13;55.01;76.42;;
49568;Laerm;35474;51.032;6.998;2023-09-18T05:26:03;64.77;53.69;73.97;;
49568;Laerm;35474;51.032;6.998;2023-09-18T05:28:30;64.21;47.67;82.86;;
49568;Laerm;35474;51.032;6.998;2023-09-18T05:30:56;66.23;52.98;78.19;;
49568;Laerm;35474;51.032;6.998;2023-09-18T05:33:23;64.19;47.70;84.08;;
49568;Laerm;35474;51.032;6.998;2023-09-18T05:35:49;64.19;48.16;78.86;;
49568;Laerm;35474;51.032;6.998;2023-09-18T05:38:17;65.65;52.83;74.70;;
49568;Laerm;35474;51.032;6.998;2023-09-18T05:40:44;65.43;48.98;74.57;;
49568;Laerm;35474;51.032;6.998;2023-09-18T05:43:11;64.91;47.81;81.80;;
49568;Laerm;35474;51.032;6.998;2023-09-18T05:45:38;66.01;49.69;83.22;;
49568;Laerm;35474;51.032;6.998;2023-09-18T05:48:05;64.95;52.75;81.71;;
49568;Laerm;35474;51.032;6.998;2023-09-18T05:50:34;66.07;54.15;82.42;;
49568;Laerm;35474;51.032;6.998;2023-09-18T05:53:02;64.71;52.65;76.63;;
49568;Laerm;35474;51.032;6.998;2023-09-18T05:55:35;66.63;56.30;83.64;;
49568;Laerm;35474;51.032;6.998;2023-09-18T05:58:02;65.70;53.68;84.51;;
49568;Laerm;35474;51.032;6.998;2023-09-18T06:00:31;64.90;53.79;73.67;;
49568;Laerm;35474;51.032;6.998;2023-09-18T06:02:58;64.83;50.64;71.41;;
49568;Laerm;35474;51.032;6.998;2023-09-18T06:05:25;63.10;53.89;75.08;;
49568;Laerm;35474;51.032;6.998;2023-09-18T06:07:52;64.62;54.51;81.53;;
49568;Laerm;35474;51.032;6.998;2023-09-18T06:10:19;65.87;55.08;77.74;;
49568;Laerm;35474;51.032;6.998;2023-09-18T06:12:46;65.43;54.10;80.35;;
49568;Laerm;35474;51.032;6.998;2023-09-18T06:15:12;64.90;56.28;86.07;;
49568;Laerm;35474;51.032;6.998;2023-09-18T06:17:40;65.39;50.17;86.68;;
49568;Laerm;35474;51.032;6.998;2023-09-18T06:20:08;64.79;55.55;79.68;;
49568;Laerm;35474;51.032;6.998;2023-09-18T06:22:42;65.26;50.93;77.45;;
49568;Laerm;35474;51.032;6.998;2023-09-18T06:25:09;63.71;53.50;72.96;;
49568;Laerm;35474;51.032;6.998;2023-09-18T06:27:37;64.43;48.90;76.22;;
49568;Laerm;35474;51.032;6.998;2023-09-18T06:32:34;64.67;49.71;76.15;;
49568;Laerm;35474;51.032;6.998;2023-09-18T06:35:04;63.37;48.05;76.93;;
49568;Laerm;35474;51.032;6.998;2023-09-18T06:37:31;67.67;56.61;93.55;;
49568;Laerm;35474;51.032;6.998;2023-09-18T06:39:57;64.66;52.15;79.14;;
49568;Laerm;35474;51.032;6.998;2023-09-18T06:42:24;63.93;49.78;72.21;;
49568;Laerm;35474;51.032;6.998;2023-09-18T06:44:51;67.78;53.96;89.67;;
49568;Laerm;35474;51.032;6.998;2023-09-18T06:47:19;66.15;55.92;85.94;;
49568;Laerm;35474;51.032;6.998;2023-09-18T06:49:45;66.23;52.67;81.11;;
49568;Laerm;35474;51.032;6.998;2023-09-18T06:52:13;66.53;55.86;80.33;;
49568;Laerm;35474;51.032;6.998;2023-09-18T06:54:40;66.54;53.35;84.80;;
49568;Laerm;35474;51.032;6.998;2023-09-18T06:57:07;70.02;57.46;89.33;;
49568;Laerm;35474;51.032;6.998;2023-09-18T06:59:33;76.11;58.23;91.30;;
49568;Laerm;35474;51.032;6.998;2023-09-18T07:02:01;72.02;57.67;85.64;;
49568;Laerm;35474;51.032;6.998;2023-09-18T07:04:28;68.19;56.81;90.60;;
49568;Laerm;35474;51.032;6.998;2023-09-18T07:06:55;68.18;57.60;86.11;;
49568;Laerm;35474;51.032;6.998;2023-09-18T07:09:23;69.06;51.45;81.21;;
49568;Laerm;35474;51.032;6.998;2023-09-18T07:11:51;65.64;55.12;86.67;;
49568;Laerm;35474;51.032;6.998;2023-09-18T07:14:18;70.95;59.54;89.99;;
49568;Laerm;35474;51.032;6.998;2023-09-18T07:16:45;68.65;51.01;88.05;;
49568;Laerm;35474;51.032;6.998;2023-09-18T07:19:12;68.33;57.15;91.33;;
49568;Laerm;35474;51.032;6.998;2023-09-18T07:21:43;64.88;51.82;81.36;;
49568;Laerm;35474;51.032;6.998;2023-09-18T07:24:10;65.68;48.58;82.87;;
49568;Laerm;35474;51.032;6.998;2023-09-18T07:26:46;63.96;50.36;78.32;;
49568;Laerm;35474;51.032;6.998;2023-09-18T07:29:14;64.63;50.17;74.72;;
49568;Laerm;35474;51.032;6.998;2023-09-18T07:31:44;64.97;50.53;72.99;;
49568;Laerm;35474;51.032;6.998;2023-09-18T07:34:11;65.16;50.12;79.57;;
49568;Laerm;35474;51.032;6.998;2023-09-18T07:36:40;67.12;53.30;92.13;;
49568;Laerm;35474;51.032;6.998;2023-09-18T07:39:07;65.99;47.74;90.65;;
49568;Laerm;35474;51.032;6.998;2023-09-18T07:41:33;65.18;47.61;80.47;;
49568;Laerm;35474;51.032;6.998;2023-09-18T07:44:00;68.67;48.46;91.39;;
49568;Laerm;35474;51.032;6.998;2023-09-18T07:46:26;67.49;51.25;85.50;;
49568;Laerm;35474;51.032;6.998;2023-09-18T07:48:53;66.57;54.25;79.90;;
49568;Laerm;35474;51.032;6.998;2023-09-18T07:51:20;67.76;54.72;85.83;;
49568;Laerm;35474;51.032;6.998;2023-09-18T07:53:47;65.21;52.90;83.72;;
49568;Laerm;35474;51.032;6.998;2023-09-18T07:56:14;63.92;50.56;71.14;;
49568;Laerm;35474;51.032;6.998;2023-09-18T07:58:41;64.88;50.60;78.40;;
49568;Laerm;35474;51.032;6.998;2023-09-18T08:01:08;64.41;46.66;74.61;;
49568;Laerm;35474;51.032;6.998;2023-09-18T08:03:36;65.56;48.92;85.34;;
49568;Laerm;35474;51.032;6.998;2023-09-18T08:06:03;64.45;52.71;82.36;;
49568;Laerm;35474;51.032;6.998;2023-09-18T08:08:31;66.00;51.88;92.19;;
49568;Laerm;35474;51.032;6.998;2023-09-18T08:11:07;67.91;48.98;88.68;;
49568;Laerm;35474;51.032;6.998;2023-09-18T08:13:35;65.59;50.81;74.91;;
49568;Laerm;35474;51.032;6.998;2023-09-18T08:16:03;64.18;48.51;77.64;;
49568;Laerm;35474;51.032;6.998;2023-09-18T08:18:30;66.12;53.97;85.81;;
49568;Laerm;35474;51.032;6.998;2023-09-18T08:20:57;65.54;55.46;85.32;;
49568;Laerm;35474;51.032;6.998;2023-09-18T08:23:24;64.84;53.96;82.68;;
49568;Laerm;35474;51.032;6.998;2023-09-18T08:25:51;66.00;54.63;82.45;;
49568;Laerm;35474;51.032;6.998;2023-09-18T08:28:21;66.21;52.04;80.24;;
49568;Laerm;35474;51.032;6.998;2023-09-18T08:30:48;65.77;51.64;82.74;;
49568;Laerm;35474;51.032;6.998;2023-09-18T08:33:15;65.32;51.48;86.70;;
49568;Laerm;35474;51.032;6.998;2023-09-18T08:35:42;65.68;58.78;77.96;;
49568;Laerm;35474;51.032;6.998;2023-09-18T08:38:08;65.69;48.90;80.28;;
49568;Laerm;35474;51.032;6.998;2023-09-18T08:40:35;67.62;49.84;90.82;;
49568;Laerm;35474;51.032;6.998;2023-09-18T08:43:02;69.11;52.50;95.25;;
49568;Laerm;35474;51.032;6.998;2023-09-18T08:45:46;66.80;53.49;91.64;;
49568;Laerm;35474;51.032;6.998;2023-09-18T08:48:15;69.75;54.45;95.65;;
49568;Laerm;35474;51.032;6.998;2023-09-18T08:50:42;65.20;53.47;84.09;;
49568;Laerm;35474;51.032;6.998;2023-09-18T08:53:11;65.59;53.14;79.04;;
49568;Laerm;35474;51.032;6.998;2023-09-18T08:55:38;63.51;50.34;88.43;;
49568;Laerm;35474;51.032;6.998;2023-09-18T08:58:07;68.53;50.84;92.42;;
49568;Laerm;35474;51.032;6.998;2023-09-18T09:00:37;67.11;50.62;94.02;;
49568;Laerm;35474;51.032;6.998;2023-09-18T09:03:04;64.97;50.04;76.06;;
49568;Laerm;35474;51.032;6.998;2023-09-18T09:05:32;65.30;50.22;81.58;;
49568;Laerm;35474;51.032;6.998;2023-09-18T09:07:59;65.50;51.17;77.35;;
49568;Laerm;35474;51.032;6.998;2023-09-18T09:10:27;65.32;52.22;83.32;;
49568;Laerm;35474;51.032;6.998;2023-09-18T09:12:56;64.76;55.03;75.11;;
49568;Laerm;35474;51.032;6.998;2023-09-18T09:15:27;65.46;53.60;81.95;;
49568;Laerm;35474;51.032;6.998;2023-09-18T09:18:05;64.37;47.93;83.01;;
49568;Laerm;35474;51.032;6.998;2023-09-18T09:20:33;64.76;49.26;72.50;;
49568;Laerm;35474;51.032;6.998;2023-09-18T09:23:01;66.05;52.06;85.90;;
49568;Laerm;35474;51.032;6.998;2023-09-18T09:25:30;68.58;51.77;87.47;;
49568;Laerm;35474;51.032;6.998;2023-09-18T09:28:03;69.11;55.06;92.18;;
49568;Laerm;35474;51.032;6.998;2023-09-18T09:30:32;69.53;53.78;86.43;;
49568;Laerm;35474;51.032;6.998;2023-09-18T09:32:59;69.67;53.68;92.71;;
49568;Laerm;35474;51.032;6.998;2023-09-18T09:35:31;68.42;53.12;88.38;;
49568;Laerm;35474;51.032;6.998;2023-09-18T09:38:07;70.46;55.16;94.63;;
49568;Laerm;35474;51.032;6.998;2023-09-18T09:40:35;70.84;54.32;95.05;;
49568;Laerm;35474;51.032;6.998;2023-09-18T09:43:08;65.32;53.96;84.49;;
49568;Laerm;35474;51.032;6.998;2023-09-18T09:45:35;71.19;53.64;90.74;;
49568;Laerm;35474;51.032;6.998;2023-09-18T09:48:04;69.75;53.14;96.05;;
49568;Laerm;35474;51.032;6.998;2023-09-18T09:50:34;68.59;48.49;93.85;;
49568;Laerm;35474;51.032;6.998;2023-09-18T09:53:12;67.31;53.22;85.59;;
49568;Laerm;35474;51.032;6.998;2023-09-18T09:55:40;64.17;51.82;79.47;;
49568;Laerm;35474;51.032;6.998;2023-09-18T09:58:08;65.07;48.60;79.91;;
49568;Laerm;35474;51.032;6.998;2023-09-18T10:03:12;66.00;50.66;83.32;;
49568;Laerm;35474;51.032;6.998;2023-09-18T10:05:44;67.64;50.33;91.43;;
49568;Laerm;35474;51.032;6.998;2023-09-18T10:08:21;67.74;48.61;91.64;;
49568;Laerm;35474;51.032;6.998;2023-09-18T10:10:51;68.98;54.25;96.36;;
49568;Laerm;35474;51.032;6.998;2023-09-18T10:13:21;64.65;51.57;86.54;;
49568;Laerm;35474;51.032;6.998;2023-09-18T10:15:51;65.14;54.74;73.73;;
49568;Laerm;35474;51.032;6.998;2023-09-18T10:21:02;64.09;48.54;72.06;;
49568;Laerm;35474;51.032;6.998;2023-09-18T10:23:53;64.45;45.63;86.32;;
49568;Laerm;35474;51.032;6.998;2023-09-18T10:26:25;67.29;49.34;89.68;;
49568;Laerm;35474;51.032;6.998;2023-09-18T10:28:56;69.52;52.02;86.69;;
49568;Laerm;35474;51.032;6.998;2023-09-18T10:31:26;67.76;47.34;90.90;;
49568;Laerm;35474;51.032;6.998;2023-09-18T10:33:56;75.07;56.17;98.16;;
49568;Laerm;35474;51.032;6.998;2023-09-18T10:36:25;75.66;50.63;97.44;;
49568;Laerm;35474;51.032;6.998;2023-09-18T10:38:52;79.16;55.94;102.14;;
49568;Laerm;35474;51.032;6.998;2023-09-18T10:41:21;77.06;51.45;101.47;;
49568;Laerm;35474;51.032;6.998;2023-09-18T10:43:47;76.78;54.09;102.49;;
49568;Laerm;35474;51.032;6.998;2023-09-18T10:46:16;75.93;53.71;100.01;;
49568;Laerm;35474;51.032;6.998;2023-09-18T10:48:43;75.64;52.56;97.53;;
49568;Laerm;35474;51.032;6.998;2023-09-18T10:51:11;71.28;54.05;89.59;;
49568;Laerm;35474;51.032;6.998;2023-09-18T10:53:37;80.75;59.55;102.80;;
49568;Laerm;35474;51.032;6.998;2023-09-18T10:56:04;75.84;58.36;93.29;;
49568;Laerm;35474;51.032;6.998;2023-09-18T10:58:32;75.36;52.97;99.82;;
49568;Laerm;35474;51.032;6.998;2023-09-18T11:01:02;74.50;56.03;94.93;;
49568;Laerm;35474;51.032;6.998;2023-09-18T11:03:33;69.30;51.65;88.64;;
49568;Laerm;35474;51.032;6.998;2023-09-18T11:06:05;77.33;52.73;102.94;;
49568;Laerm;35474;51.032;6.998;2023-09-18T11:11:11;80.68;51.22;101.05;;
49568;Laerm;35474;51.032;6.998;2023-09-18T11:13:44;73.47;55.43;99.85;;
49568;Laerm;35474;51.032;6.998;2023-09-18T11:19:09;74.89;50.41;97.43;;
49568;Laerm;35474;51.032;6.998;2023-09-18T11:21:37;79.10;50.50;105.59;;
49568;Laerm;35474;51.032;6.998;2023-09-18T11:24:18;75.39;48.18;98.87;;
49568;Laerm;35474;51.032;6.998;2023-09-18T11:26:48;77.32;53.17;100.21;;
49568;Laerm;35474;51.032;6.998;2023-09-18T11:29:16;77.04;50.30;99.64;;
49568;Laerm;35474;51.032;6.998;2023-09-18T11:31:50;72.56;53.36;97.44;;
49568;Laerm;35474;51.032;6.998;2023-09-18T11:34:26;77.38;53.24;106.19;;
49568;Laerm;35474;51.032;6.998;2023-09-18T11:36:53;76.30;47.10;100.73;;
49568;Laerm;35474;51.032;6.998;2023-09-18T11:39:39;69.94;46.93;91.77;;
49568;Laerm;35474;51.032;6.998;2023-09-18T11:42:12;74.99;47.70;99.88;;
49568;Laerm;35474;51.032;6.998;2023-09-18T11:44:40;77.78;56.92;96.34;;
49568;Laerm;35474;51.032;6.998;2023-09-18T11:47:17;75.20;54.35;97.30;;
49568;Laerm;35474;51.032;6.998;2023-09-18T11:49:51;80.88;52.79;101.21;;
49568;Laerm;35474;51.032;6.998;2023-09-18T11:52:23;78.21;51.36;100.66;;
49568;Laerm;35474;51.032;6.998;2023-09-18T11:54:52;79.16;54.74;104.30;;
49568;Laerm;35474;51.032;6.998;2023-09-18T11:57:20;74.55;52.51;99.69;;
49568;Laerm;35474;51.032;6.998;2023-09-18T11:59:47;73.28;54.66;91.94;;
49568;Laerm;35474;51.032;6.998;2023-09-18T12:02:28;75.42;50.79;95.32;;
49568;Laerm;35474;51.032;6.998;2023-09-18T12:05:10;71.82;55.06;98.19;;
49568;Laerm;35474;51.032;6.998;2023-09-18T12:07:37;72.46;58.55;95.06;;
49568;Laerm;35474;51.032;6.998;2023-09-18T12:10:06;72.57;56.08;95.31;;
49568;Laerm;35474;51.032;6.998;2023-09-18T12:12:35;75.85;53.54;97.19;;
49568;Laerm;35474;51.032;6.998;2023-09-18T12:15:02;76.24;58.46;97.05;;
49568;Laerm;35474;51.032;6.998;2023-09-18T12:17:30;77.29;53.88;98.81;;
49568;Laerm;35474;51.032;6.998;2023-09-18T12:19:56;69.46;54.06;92.35;;
49568;Laerm;35474;51.032;6.998;2023-09-18T12:22:27;68.39;52.23;92.43;;
49568;Laerm;35474;51.032;6.998;2023-09-18T12:25:08;72.31;54.49;95.72;;
49568;Laerm;35474;51.032;6.998;2023-09-18T12:27:41;77.22;54.60;104.39;;
49568;Laerm;35474;51.032;6.998;2023-09-18T12:30:08;77.06;52.45;99.22;;
49568;Laerm;35474;51.032;6.998;2023-09-18T12:32:39;79.64;55.34;97.82;;
49568;Laerm;35474;51.032;6.998;2023-09-18T12:35:06;75.03;48.20;98.22;;
49568;Laerm;35474;51.032;6.998;2023-09-18T12:37:34;74.76;50.92;97.51;;
49568;Laerm;35474;51.032;6.998;2023-09-18T12:40:01;68.94;54.42;91.75;;
49568;Laerm;35474;51.032;6.998;2023-09-18T12:42:28;69.23;50.99;94.97;;
49568;Laerm;35474;51.032;6.998;2023-09-18T12:44:54;67.95;56.26;92.94;;
49568;Laerm;35474;51.032;6.998;2023-09-18T12:47:22;69.11;52.22;88.74;;
49568;Laerm;35474;51.032;6.998;2023-09-18T12:49:48;65.68;49.43;75.37;;
49568;Laerm;35474;51.032;6.998;2023-09-18T12:52:21;76.40;56.40;97.41;;
49568;Laerm;35474;51.032;6.998;2023-09-18T12:54:49;67.83;56.51;88.37;;
49568;Laerm;35474;51.032;6.998;2023-09-18T12:57:20;71.49;48.54;91.79;;
49568;Laerm;35474;51.032;6.998;2023-09-18T12:59:47;76.31;49.98;100.82;;
49568;Laerm;35474;51.032;6.998;2023-09-18T13:02:17;79.69;53.25;102.35;;
49568;Laerm;35474;51.032;6.998;2023-09-18T13:04:55;75.56;52.55;96.63;;
49568;Laerm;35474;51.032;6.998;2023-09-18T13:07:23;77.99;51.91;100.09;;
49568;Laerm;35474;51.032;6.998;2023-09-18T13:10:03;72.99;51.86;94.89;;
49568;Laerm;35474;51.032;6.998;2023-09-18T13:15:31;77.81;58.04;99.91;;
49568;Laerm;35474;51.032;6.998;2023-09-18T13:18:08;70.99;52.66;94.45;;
49568;Laerm;35474;51.032;6.998;2023-09-18T13:20:36;72.51;55.75;99.11;;
49568;Laerm;35474;51.032;6.998;2023-09-18T13:23:02;69.89;53.06;91.76;;
49568;Laerm;35474;51.032;6.998;2023-09-18T13:28:02;75.32;58.97;95.92;;
49568;Laerm;35474;51.032;6.998;2023-09-18T13:30:30;84.36;58.93;104.56;;
49568;Laerm;35474;51.032;6.998;2023-09-18T13:33:02;78.37;58.10;100.23;;
49568;Laerm;35474;51.032;6.998;2023-09-18T13:35:34;76.39;54.69;99.20;;
49568;Laerm;35474;51.032;6.998;2023-09-18T13:38:02;81.42;57.83;102.47;;
49568;Laerm;35474;51.032;6.998;2023-09-18T13:40:32;74.29;52.67;98.24;;
49568;Laerm;35474;51.032;6.998;2023-09-18T13:43:05;67.38;52.83;83.91;;
49568;Laerm;35474;51.032;6.998;2023-09-18T13:45:33;66.74;50.00;90.84;;
49568;Laerm;35474;51.032;6.998;2023-09-18T13:48:04;74.51;55.28;102.48;;
49568;Laerm;35474;51.032;6.998;2023-09-18T13:50:32;78.58;55.30;100.50;;
49568;Laerm;35474;51.032;6.998;2023-09-18T13:52:59;73.68;54.07;97.38;;
49568;Laerm;35474;51.032;6.998;2023-09-18T13:55:30;70.64;54.47;93.52;;
49568;Laerm;35474;51.032;6.998;2023-09-18T13:57:56;65.66;50.18;88.20;;
49568;Laerm;35474;51.032;6.998;2023-09-18T14:00:23;77.63;54.69;102.84;;
49568;Laerm;35474;51.032;6.998;2023-09-18T14:02:52;68.80;51.53;96.58;;
49568;Laerm;35474;51.032;6.998;2023-09-18T14:05:19;69.55;50.44;91.40;;
49568;Laerm;35474;51.032;6.998;2023-09-18T14:07:47;68.83;49.17;92.29;;
49568;Laerm;35474;51.032;6.998;2023-09-18T14:10:14;72.23;52.44;98.13;;
49568;Laerm;35474;51.032;6.998;2023-09-18T14:12:42;72.89;52.59;94.26;;